createdAt,value
2019-02-02T00:02:30.008Z,22.00
2019-02-02T00:05:22.301Z,22.00
2019-02-02T00:08:15.790Z,22.00
2019-02-02T00:11:07.995Z,22.00
2019-02-02T00:14:01.325Z,22.00
2019-02-02T00:16:51.643Z,22.00
2019-02-02T00:19:44.817Z,22.00
2019-02-02T00:22:39.170Z,22.00
2019-02-02T00:25:31.344Z,22.00
2019-02-02T00:28:23.448Z,22.00
2019-02-02T00:31:18.038Z,22.00
2019-02-02T00:34:09.896Z,22.00
2019-02-02T00:37:01.813Z,22.00
2019-02-02T00:39:54.156Z,22.00
2019-02-02T00:42:46.139Z,22.00
2019-02-02T00:45:38.377Z,21.90
2019-02-02T00:48:30.343Z,22.00
2019-02-02T00:51:22.371Z,21.90
2019-02-02T00:54:16.733Z,21.90
2019-02-02T00:57:07.802Z,21.90
2019-02-02T01:00:00.407Z,22.00
2019-02-02T01:02:52.562Z,21.90
2019-02-02T01:05:44.834Z,21.90
2019-02-02T01:08:37.971Z,21.90
2019-02-02T01:11:29.967Z,21.90
2019-02-02T01:14:21.897Z,21.90
2019-02-02T01:17:15.237Z,21.90
2019-02-02T01:20:07.735Z,21.90
2019-02-02T01:22:59.559Z,21.90
2019-02-02T01:25:51.736Z,21.90
2019-02-02T01:28:43.529Z,21.90
2019-02-02T01:31:35.733Z,21.90
2019-02-02T01:34:27.999Z,21.90
2019-02-02T01:37:19.925Z,21.90
2019-02-02T01:40:13.096Z,21.90
2019-02-02T01:43:05.062Z,21.90
2019-02-02T01:45:57.503Z,21.90
2019-02-02T01:48:49.790Z,21.80
2019-02-02T01:51:42.129Z,21.90
2019-02-02T01:54:38.324Z,21.90
2019-02-02T01:57:28.684Z,21.90
2019-02-02T02:00:22.048Z,21.90
2019-02-02T02:03:13.946Z,21.90
2019-02-02T02:06:05.835Z,21.90
2019-02-02T02:08:57.930Z,21.80
2019-02-02T02:11:49.966Z,21.80
2019-02-02T02:14:43.449Z,21.80
2019-02-02T02:17:35.619Z,21.80
2019-02-02T02:20:28.341Z,21.80
2019-02-02T02:23:20.375Z,21.70
2019-02-02T02:26:12.271Z,21.70
2019-02-02T02:29:04.267Z,21.60
2019-02-02T02:31:57.140Z,21.50
2019-02-02T02:34:50.907Z,21.60
2019-02-02T02:37:42.637Z,21.70
2019-02-02T02:40:35.288Z,21.70
2019-02-02T02:43:29.675Z,21.60
2019-02-02T02:46:21.766Z,21.50
2019-02-02T02:49:14.083Z,21.40
2019-02-02T02:52:07.917Z,21.40
2019-02-02T02:54:59.697Z,21.50
2019-02-02T02:57:53.124Z,21.40
2019-02-02T03:00:45.230Z,21.50
2019-02-02T03:03:37.936Z,21.40
2019-02-02T03:06:29.859Z,21.50
2019-02-02T03:09:22.153Z,21.40
2019-02-02T03:12:13.930Z,21.40
2019-02-02T03:15:06.603Z,21.40
2019-02-02T03:17:58.469Z,21.40
2019-02-02T03:20:50.595Z,21.40
2019-02-02T03:23:42.937Z,21.40
2019-02-02T03:26:39.284Z,21.50
2019-02-02T03:29:31.425Z,21.50
2019-02-02T03:32:28.588Z,21.50
2019-02-02T03:35:22.163Z,21.50
2019-02-02T03:38:14.037Z,21.50
2019-02-02T03:41:06.107Z,21.60
2019-02-02T03:43:58.008Z,21.70
2019-02-02T03:46:49.910Z,21.70
2019-02-02T03:49:41.831Z,21.70
2019-02-02T03:52:33.764Z,21.70
2019-02-02T03:55:25.734Z,21.70
2019-02-02T03:58:18.155Z,21.80
2019-02-02T04:01:10.072Z,21.80
2019-02-02T04:04:05.508Z,21.80
2019-02-02T04:06:57.570Z,21.80
2019-02-02T04:09:49.825Z,21.80
2019-02-02T04:12:41.615Z,21.80
2019-02-02T04:15:56.433Z,21.80
2019-02-02T04:18:57.759Z,21.90
2019-02-02T04:21:52.430Z,21.90
2019-02-02T04:24:45.167Z,21.90
2019-02-02T04:27:37.703Z,21.90
2019-02-02T04:30:29.931Z,21.90
2019-02-02T04:33:22.316Z,21.90
2019-02-02T04:36:14.598Z,22.00
2019-02-02T04:39:05.620Z,22.00
2019-02-02T04:41:57.555Z,22.00
2019-02-02T04:44:49.570Z,21.90
2019-02-02T04:47:41.913Z,21.90
2019-02-02T04:50:36.067Z,21.90
2019-02-02T04:53:28.419Z,21.80
2019-02-02T04:56:21.165Z,21.90
2019-02-02T04:59:13.775Z,21.90
2019-02-02T05:02:09.001Z,21.90
2019-02-02T05:05:01.039Z,21.90
2019-02-02T05:07:53.325Z,21.90
2019-02-02T05:10:45.574Z,21.90
2019-02-02T05:13:37.700Z,22.00
2019-02-02T05:16:30.209Z,21.90
2019-02-02T05:19:24.498Z,21.90
2019-02-02T05:22:19.592Z,22.00
2019-02-02T05:25:16.629Z,22.00
2019-02-02T05:28:14.014Z,21.90
2019-02-02T05:31:08.186Z,22.00
2019-02-02T05:34:00.822Z,22.00
2019-02-02T05:36:56.666Z,22.00
2019-02-02T05:39:54.991Z,22.00
2019-02-02T05:42:53.865Z,22.00
2019-02-02T05:45:48.488Z,22.00
2019-02-02T05:48:58.532Z,22.00
2019-02-02T05:51:52.550Z,22.10
2019-02-02T05:54:47.307Z,22.10
2019-02-02T06:01:08.127Z,22.10
2019-02-02T06:03:52.495Z,22.20
2019-02-02T06:10:12.189Z,22.20
2019-02-02T06:13:11.910Z,22.20
2019-02-02T06:19:46.116Z,22.20
2019-02-02T06:22:51.901Z,22.20
2019-02-02T06:26:34.776Z,22.20
2019-02-02T06:30:03.796Z,22.20
2019-02-02T06:32:19.312Z,22.30
2019-02-02T06:35:40.492Z,22.30
2019-02-02T06:38:53.945Z,22.30
2019-02-02T06:45:40.791Z,22.20
2019-02-02T06:52:29.377Z,22.30
2019-02-02T06:55:27.405Z,22.20
2019-02-02T06:58:51.197Z,22.20
2019-02-02T07:04:46.043Z,22.30
2019-02-02T07:14:01.453Z,22.20
2019-02-02T07:16:57.617Z,22.20
2019-02-02T07:20:09.975Z,22.20
2019-02-02T07:23:07.673Z,22.20
2019-02-02T07:26:00.570Z,22.20
2019-02-02T07:28:52.989Z,22.20
2019-02-02T07:31:46.970Z,22.30
2019-02-02T07:34:40.879Z,22.20
2019-02-02T07:37:37.418Z,22.20
2019-02-02T07:40:39.607Z,22.20
2019-02-02T07:43:45.443Z,22.30
2019-02-02T07:46:42.036Z,22.30
2019-02-02T07:49:35.788Z,22.30
2019-02-02T07:52:31.307Z,22.40
2019-02-02T07:55:35.631Z,22.40
2019-02-02T07:58:26.913Z,22.40
2019-02-02T08:01:40.527Z,22.40
2019-02-02T08:04:23.177Z,22.40
2019-02-02T08:07:24.701Z,22.50
2019-02-02T08:10:35.251Z,22.40
2019-02-02T08:13:47.153Z,22.40
2019-02-02T08:17:10.604Z,22.40
2019-02-02T08:19:58.235Z,22.40
2019-02-02T08:22:51.023Z,22.40
2019-02-02T08:25:53.275Z,22.40
2019-02-02T08:28:45.778Z,22.40
2019-02-02T08:31:41.630Z,22.40
2019-02-02T08:34:34.511Z,22.40
2019-02-02T08:37:27.304Z,22.40
2019-02-02T08:40:20.068Z,22.40
2019-02-02T08:43:13.806Z,22.40
2019-02-02T08:46:06.553Z,22.40
2019-02-02T08:48:59.033Z,22.40
2019-02-02T08:51:51.626Z,22.40
2019-02-02T08:54:44.206Z,22.50
2019-02-02T08:57:36.941Z,22.40
2019-02-02T09:00:40.240Z,22.40
2019-02-02T09:03:35.318Z,22.40
2019-02-02T09:06:38.649Z,22.50
2019-02-02T09:09:22.334Z,22.40
2019-02-02T09:12:18.628Z,22.40
2019-02-02T09:15:13.759Z,22.40
2019-02-02T09:18:06.116Z,22.40
2019-02-02T09:21:01.474Z,22.40
2019-02-02T09:24:16.367Z,22.40
2019-02-02T09:27:03.371Z,22.40
2019-02-02T09:29:58.107Z,22.40
2019-02-02T09:32:54.512Z,22.40
2019-02-02T09:36:16.765Z,22.40
2019-02-02T09:39:05.968Z,22.40
2019-02-02T09:42:06.706Z,22.40
2019-02-02T09:45:00.814Z,22.40
2019-02-02T09:47:54.938Z,22.40
2019-02-02T09:50:48.023Z,22.50
2019-02-02T09:53:45.440Z,22.40
2019-02-02T09:56:39.089Z,22.40
2019-02-02T09:59:36.193Z,22.40
2019-02-02T10:02:29.325Z,22.40
2019-02-02T10:05:21.923Z,22.50
2019-02-02T10:08:15.241Z,22.40
2019-02-02T10:11:08.768Z,22.40
2019-02-02T10:14:02.582Z,22.50
2019-02-02T10:17:00.014Z,22.40
2019-02-02T10:19:51.962Z,22.50
2019-02-02T10:23:05.025Z,22.50
2019-02-02T10:26:12.394Z,22.40
2019-02-02T10:31:55.974Z,22.40
2019-02-02T10:34:48.463Z,22.50
2019-02-02T10:37:46.320Z,22.50
2019-02-02T10:40:40.359Z,22.50
2019-02-02T10:43:33.817Z,22.50
2019-02-02T10:46:26.601Z,22.50
2019-02-02T10:49:20.569Z,22.50
2019-02-02T10:52:12.478Z,22.60
2019-02-02T10:55:04.714Z,22.60
2019-02-02T10:58:00.292Z,22.60
2019-02-02T11:00:53.073Z,22.60
2019-02-02T11:03:45.166Z,22.60
2019-02-02T11:06:37.704Z,22.60
2019-02-02T11:09:31.727Z,22.60
2019-02-02T11:12:27.121Z,22.60
2019-02-02T11:15:27.191Z,22.60
2019-02-02T11:18:22.130Z,22.60
2019-02-02T11:21:14.517Z,22.60
2019-02-02T11:24:06.918Z,22.60
2019-02-02T11:26:59.192Z,22.60
2019-02-02T11:29:51.750Z,22.60
2019-02-02T11:32:44.359Z,22.60
2019-02-02T11:35:36.342Z,22.60
2019-02-02T11:38:39.335Z,22.60
2019-02-02T11:41:58.118Z,22.60
2019-02-02T11:48:41.550Z,22.60
2019-02-02T11:51:38.328Z,22.60
2019-02-02T11:54:31.072Z,22.60
2019-02-02T11:57:24.995Z,22.60
2019-02-02T12:00:19.172Z,22.60
2019-02-02T12:03:18.310Z,22.50
2019-02-02T12:06:23.591Z,22.60
2019-02-02T12:09:30.821Z,22.60
2019-02-02T12:13:02.533Z,22.60
2019-02-02T12:15:55.920Z,22.60
2019-02-02T12:19:05.328Z,22.60
2019-02-02T12:25:53.070Z,22.70
2019-02-02T12:28:56.901Z,22.70
2019-02-02T12:32:26.318Z,22.70
2019-02-02T12:35:52.575Z,22.60
2019-02-02T12:38:43.567Z,22.60
2019-02-02T12:41:42.291Z,22.60
2019-02-02T12:44:36.088Z,22.70
2019-02-02T12:48:00.674Z,22.70
2019-02-02T12:50:43.706Z,22.70
2019-02-02T12:54:28.443Z,22.70
2019-02-02T13:13:37.401Z,22.70
2019-02-02T13:16:33.517Z,22.70
2019-02-02T13:39:58.872Z,22.80
2019-02-02T13:42:53.436Z,22.90
2019-02-02T13:45:46.405Z,22.80
2019-02-02T13:48:52.977Z,22.80
2019-02-02T13:51:43.328Z,22.80
2019-02-02T13:54:40.080Z,22.80
2019-02-02T13:57:31.796Z,22.70
2019-02-02T14:00:26.875Z,22.70
2019-02-02T14:03:20.639Z,22.70
2019-02-02T14:06:13.676Z,22.70
2019-02-02T14:09:09.460Z,22.60
2019-02-02T14:12:04.911Z,22.60
2019-02-02T14:14:57.419Z,22.60
2019-02-02T14:17:50.036Z,22.60
2019-02-02T14:20:42.394Z,22.60
2019-02-02T14:23:35.558Z,22.60
2019-02-02T14:26:32.593Z,22.60
2019-02-02T14:29:25.031Z,22.60
2019-02-02T14:32:18.970Z,22.60
2019-02-02T14:35:19.951Z,22.60
2019-02-02T14:38:20.289Z,22.60
2019-02-02T14:41:11.617Z,22.60
2019-02-02T14:44:05.521Z,22.50
2019-02-02T14:47:24.317Z,22.60
2019-02-02T14:53:39.226Z,22.50
2019-02-02T14:56:49.378Z,22.60
2019-02-02T14:59:42.465Z,22.60
2019-02-02T15:02:43.989Z,22.50
2019-02-02T15:05:43.132Z,22.60
2019-02-02T15:08:30.845Z,22.60
2019-02-02T15:11:24.120Z,22.50
2019-02-02T15:14:34.545Z,22.50
2019-02-02T15:17:23.657Z,22.50
2019-02-02T15:20:26.883Z,22.50
2019-02-02T15:23:23.424Z,22.50
2019-02-02T15:26:15.753Z,22.60
2019-02-02T15:29:09.181Z,22.50
2019-02-02T15:32:03.619Z,22.50
2019-02-02T15:34:56.384Z,22.50
2019-02-02T15:37:50.479Z,22.60
2019-02-02T15:40:42.280Z,22.50
2019-02-02T15:43:34.619Z,22.50
2019-02-02T15:46:27.531Z,22.50
2019-02-02T15:49:20.781Z,22.50
2019-02-02T15:52:13.453Z,22.50
2019-02-02T15:55:06.902Z,22.50
2019-02-02T15:58:07.632Z,22.50
2019-02-02T16:01:03.419Z,22.50
2019-02-02T16:04:03.962Z,22.50
2019-02-02T16:06:58.560Z,22.60
2019-02-02T16:09:52.104Z,22.50
2019-02-02T16:12:44.068Z,22.50
2019-02-02T16:15:38.802Z,22.60
2019-02-02T16:18:31.286Z,22.60
2019-02-02T16:21:23.396Z,22.50
2019-02-02T16:24:17.930Z,22.50
2019-02-02T16:27:11.665Z,22.50
2019-02-02T16:30:05.459Z,22.50
2019-02-02T16:33:03.945Z,22.50
2019-02-02T16:35:58.107Z,22.50
2019-02-02T16:38:52.269Z,22.50
2019-02-02T16:41:48.104Z,22.50
2019-02-02T16:44:42.080Z,22.50
2019-02-02T16:47:34.757Z,22.50
2019-02-02T16:50:31.116Z,22.40
2019-02-02T16:53:23.481Z,22.40
2019-02-02T16:56:16.323Z,22.40
2019-02-02T16:59:08.765Z,22.50
2019-02-02T17:02:02.452Z,22.50
2019-02-02T17:04:54.806Z,22.40
2019-02-02T17:07:52.178Z,22.50
2019-02-02T17:10:45.990Z,22.50
2019-02-02T17:13:38.667Z,22.40
2019-02-02T17:16:30.663Z,22.40
2019-02-02T17:19:22.726Z,22.40
2019-02-02T17:22:14.795Z,22.40
2019-02-02T17:25:11.196Z,22.40
2019-02-02T17:28:04.351Z,22.40
2019-02-02T17:30:56.856Z,22.40
2019-02-02T17:33:49.423Z,22.40
2019-02-02T17:36:42.114Z,22.40
2019-02-02T17:39:37.915Z,22.40
2019-02-02T17:42:31.410Z,22.40
2019-02-02T17:48:15.683Z,22.40
2019-02-02T17:51:05.750Z,22.40
2019-02-02T17:53:59.357Z,22.40
2019-02-02T17:56:51.252Z,22.40
2019-02-02T17:59:43.346Z,22.40
2019-02-02T18:02:35.481Z,22.40
2019-02-02T18:05:27.464Z,22.40
2019-02-02T18:08:19.769Z,22.40
2019-02-02T18:11:10.122Z,22.40
2019-02-02T18:14:02.357Z,22.40
2019-02-02T18:16:54.694Z,22.40
2019-02-02T18:19:47.105Z,22.40
2019-02-02T18:22:39.068Z,22.40
2019-02-02T18:25:31.339Z,22.40
2019-02-02T18:28:23.268Z,22.40
2019-02-02T18:31:15.247Z,22.40
2019-02-02T18:34:07.625Z,22.40
2019-02-02T18:36:59.519Z,22.40
2019-02-02T18:39:51.399Z,22.40
2019-02-02T18:42:44.553Z,22.40
2019-02-02T18:45:36.588Z,22.40
2019-02-02T18:48:28.655Z,22.40
2019-02-02T18:51:20.812Z,22.30
2019-02-02T18:54:12.871Z,22.40
2019-02-02T18:57:04.787Z,22.40
2019-02-02T18:59:56.657Z,22.30
2019-02-02T19:02:48.864Z,22.40
2019-02-02T19:05:40.928Z,22.30
2019-02-02T19:08:32.848Z,22.30
2019-02-02T19:11:24.893Z,22.40
2019-02-02T19:14:16.699Z,22.30
2019-02-02T19:17:08.802Z,22.30
2019-02-02T19:20:00.991Z,22.30
2019-02-02T19:22:52.815Z,22.30
2019-02-02T19:25:45.096Z,22.30
2019-02-02T19:28:39.985Z,22.40
2019-02-02T19:31:30.824Z,22.40
2019-02-02T19:34:23.053Z,22.40
2019-02-02T19:37:15.373Z,22.30
2019-02-02T19:40:08.243Z,22.40
2019-02-02T19:43:00.507Z,22.30
2019-02-02T19:45:53.677Z,22.30
2019-02-02T19:48:46.282Z,22.40
2019-02-02T19:51:38.308Z,22.40
2019-02-02T19:54:30.416Z,22.40
2019-02-02T19:57:22.536Z,22.30
2019-02-02T20:00:21.070Z,22.30
2019-02-02T20:03:13.387Z,22.30
2019-02-02T20:06:05.719Z,22.30
2019-02-02T20:08:57.683Z,22.30
2019-02-02T20:11:50.012Z,22.30
2019-02-02T20:14:41.908Z,22.30
2019-02-02T20:17:34.085Z,22.30
2019-02-02T20:20:26.962Z,22.30
2019-02-02T20:23:19.019Z,22.30
2019-02-02T20:26:11.215Z,22.30
2019-02-02T20:29:03.579Z,22.30
2019-02-02T20:31:55.818Z,22.30
2019-02-02T20:34:48.155Z,22.30
2019-02-02T20:37:40.817Z,22.30
2019-02-02T20:40:33.122Z,22.40
2019-02-02T20:43:25.194Z,22.30
2019-02-02T20:46:17.500Z,22.30
2019-02-02T20:49:09.833Z,22.30
2019-02-02T20:52:02.710Z,22.30
2019-02-02T20:54:54.781Z,22.30
2019-02-02T20:57:49.414Z,22.30
2019-02-02T21:00:41.365Z,22.30
2019-02-02T21:03:33.331Z,22.30
2019-02-02T21:06:25.452Z,22.30
2019-02-02T21:09:17.859Z,22.30
2019-02-02T21:12:10.030Z,22.30
2019-02-02T21:15:01.986Z,22.30
2019-02-02T21:17:53.901Z,22.30
2019-02-02T21:20:45.883Z,22.40
2019-02-02T21:23:37.894Z,22.30
2019-02-02T21:26:31.155Z,22.30
2019-02-02T21:29:23.393Z,22.30
2019-02-02T21:32:15.801Z,22.40
2019-02-02T21:35:07.993Z,22.30
2019-02-02T21:38:00.416Z,22.30
2019-02-02T21:40:50.660Z,22.30
2019-02-02T21:43:43.302Z,22.30
2019-02-02T21:46:35.116Z,22.30
2019-02-02T21:49:27.059Z,22.30
2019-02-02T21:52:19.245Z,22.30
2019-02-02T21:55:13.042Z,22.30
2019-02-02T21:58:05.080Z,22.30
2019-02-02T22:00:57.509Z,22.30
2019-02-02T22:03:49.939Z,22.30
2019-02-02T22:06:42.017Z,22.30
2019-02-02T22:09:34.334Z,22.30
2019-02-02T22:12:26.685Z,22.30
2019-02-02T22:15:20.309Z,22.30
2019-02-02T22:18:12.187Z,22.30
2019-02-02T22:21:06.737Z,22.30
2019-02-02T22:23:58.434Z,22.30
2019-02-02T22:26:50.572Z,22.30
2019-02-02T22:29:42.573Z,22.30
2019-02-02T22:32:34.434Z,22.30
2019-02-02T22:35:26.497Z,22.30
2019-02-02T22:38:19.095Z,22.30
2019-02-02T22:41:11.515Z,22.30
2019-02-02T22:44:03.779Z,22.30
2019-02-02T22:46:56.258Z,22.30
2019-02-02T22:49:48.455Z,22.30
2019-02-02T22:52:43.413Z,22.30
2019-02-02T22:55:35.281Z,22.30
2019-02-02T22:58:27.496Z,22.30
2019-02-02T23:01:22.459Z,22.30
2019-02-02T23:04:31.337Z,22.20
2019-02-02T23:07:50.914Z,22.20
2019-02-02T23:10:53.154Z,22.20
2019-02-02T23:14:03.577Z,22.30
2019-02-02T23:16:55.632Z,22.30
2019-02-02T23:19:48.983Z,22.30
2019-02-02T23:22:40.822Z,22.30
2019-02-02T23:25:34.632Z,22.20
2019-02-02T23:28:25.940Z,22.20
2019-02-02T23:31:17.843Z,22.30
2019-02-02T23:34:09.700Z,22.30
2019-02-02T23:37:02.987Z,22.30
2019-02-02T23:39:55.226Z,22.30
2019-02-02T23:42:47.516Z,22.30
2019-02-02T23:45:40.836Z,22.30
2019-02-02T23:48:34.397Z,22.30
2019-02-02T23:51:26.321Z,22.30
2019-02-02T23:54:18.541Z,22.30
2019-02-02T23:57:10.446Z,22.20
